createdAt,value
2022-08-23T00:01:24.398Z,51.96
2022-08-23T00:04:14.611Z,51.89
2022-08-23T00:07:07.347Z,52.07
2022-08-23T00:09:53.185Z,51.92
2022-08-23T00:12:40.147Z,52.18
2022-08-23T00:15:26.353Z,51.93
2022-08-23T00:18:14.424Z,51.89
2022-08-23T00:21:00.541Z,52.22
2022-08-23T00:23:46.234Z,52.28
2022-08-23T00:27:02.355Z,52.62
2022-08-23T00:29:54.241Z,52.58
2022-08-23T00:32:41.484Z,52.47
2022-08-23T00:35:27.930Z,52.81
2022-08-23T00:38:32.438Z,52.68
2022-08-23T00:41:19.735Z,52.62
2022-08-23T00:44:24.543Z,52.73
2022-08-23T00:47:30.736Z,52.74
2022-08-23T00:50:23.453Z,52.75
2022-08-23T00:53:26.138Z,52.78
2022-08-23T00:56:13.785Z,52.74
2022-08-23T00:59:00.285Z,52.81
2022-08-23T01:01:46.108Z,52.79
2022-08-23T01:04:37.137Z,52.77
2022-08-23T01:07:48.718Z,53.00
2022-08-23T01:10:44.644Z,53.08
2022-08-23T01:14:03.857Z,53.21
2022-08-23T01:16:54.485Z,53.31
2022-08-23T01:19:51.901Z,53.43
2022-08-23T01:22:43.421Z,53.33
2022-08-23T01:25:31.868Z,53.61
2022-08-23T01:28:18.338Z,53.43
2022-08-23T01:31:04.189Z,53.41
2022-08-23T01:33:59.662Z,53.42
2022-08-23T01:36:46.446Z,54.04
2022-08-23T01:39:32.244Z,53.29
2022-08-23T01:42:18.928Z,53.14
2022-08-23T01:45:05.886Z,53.27
2022-08-23T01:47:52.607Z,53.09
2022-08-23T01:50:39.172Z,53.21
2022-08-23T01:53:25.361Z,53.10
2022-08-23T01:56:11.256Z,53.09
2022-08-23T01:58:58.660Z,53.04
2022-08-23T02:01:51.424Z,53.08
2022-08-23T02:04:37.715Z,52.98
2022-08-23T02:07:27.554Z,52.82
2022-08-23T02:10:15.562Z,52.94
2022-08-23T02:13:01.839Z,52.89
2022-08-23T02:15:51.591Z,52.75
2022-08-23T02:18:41.356Z,52.96
2022-08-23T02:21:27.437Z,52.98
2022-08-23T02:24:16.629Z,52.91
2022-08-23T02:27:05.157Z,52.95
2022-08-23T02:29:54.935Z,52.88
2022-08-23T02:32:42.348Z,52.95
2022-08-23T02:35:29.553Z,52.95
2022-08-23T02:38:17.344Z,53.11
2022-08-23T02:41:03.590Z,53.11
2022-08-23T02:43:53.710Z,53.08
2022-08-23T02:46:42.198Z,53.16
2022-08-23T02:49:29.566Z,52.85
2022-08-23T02:52:15.612Z,53.09
2022-08-23T02:55:02.415Z,53.12
2022-08-23T02:57:48.832Z,52.99
2022-08-23T03:01:57.327Z,53.25
2022-08-23T03:04:47.647Z,53.07
2022-08-23T03:07:33.492Z,53.11
2022-08-23T03:10:20.675Z,53.26
2022-08-23T03:13:12.828Z,53.19
2022-08-23T03:15:59.270Z,53.25
2022-08-23T03:18:45.994Z,53.21
2022-08-23T03:21:32.548Z,53.25
2022-08-23T03:24:19.289Z,53.25
2022-08-23T03:27:05.573Z,53.30
2022-08-23T03:29:51.624Z,53.31
2022-08-23T03:32:37.678Z,53.26
2022-08-23T03:35:23.642Z,53.29
2022-08-23T03:38:10.675Z,53.28
2022-08-23T03:40:57.240Z,53.17
2022-08-23T03:43:44.118Z,53.32
2022-08-23T03:46:34.033Z,53.31
2022-08-23T03:49:21.044Z,53.23
2022-08-23T03:52:12.647Z,53.40
2022-08-23T03:54:59.202Z,53.29
2022-08-23T03:57:49.130Z,53.20
2022-08-23T04:00:38.217Z,53.38
2022-08-23T04:03:24.589Z,53.58
2022-08-23T04:06:19.816Z,53.40
2022-08-23T04:09:06.908Z,53.49
2022-08-23T04:11:53.393Z,53.44
2022-08-23T04:14:40.788Z,53.32
2022-08-23T04:17:27.060Z,53.58
2022-08-23T04:20:13.455Z,53.53
2022-08-23T04:23:19.889Z,53.62
2022-08-23T04:26:11.707Z,53.73
2022-08-23T04:29:00.158Z,53.79
2022-08-23T04:31:46.841Z,53.90
2022-08-23T04:34:36.358Z,53.69
2022-08-23T04:37:23.457Z,53.81
2022-08-23T04:40:31.411Z,53.91
2022-08-23T04:43:18.638Z,53.79
2022-08-23T04:46:05.653Z,53.95
2022-08-23T04:48:54.353Z,53.90
2022-08-23T04:51:40.633Z,53.85
2022-08-23T04:54:27.067Z,53.86
2022-08-23T04:57:42.607Z,53.87
2022-08-23T05:00:30.835Z,53.88
2022-08-23T05:03:17.404Z,53.81
2022-08-23T05:06:05.202Z,53.91
2022-08-23T05:08:58.343Z,53.77
2022-08-23T05:11:44.565Z,53.93
2022-08-23T05:14:31.628Z,53.95
2022-08-23T05:17:20.592Z,53.97
2022-08-23T05:20:08.413Z,54.16
2022-08-23T05:22:55.537Z,53.99
2022-08-23T05:26:04.112Z,54.25
2022-08-23T05:28:58.760Z,53.98
2022-08-23T05:31:50.578Z,53.88
2022-08-23T05:34:39.177Z,54.07
2022-08-23T05:37:29.435Z,54.11
2022-08-23T05:40:15.710Z,54.25
2022-08-23T05:43:15.728Z,54.20
2022-08-23T05:46:12.192Z,54.35
2022-08-23T05:49:06.011Z,54.26
2022-08-23T05:51:52.221Z,54.34
2022-08-23T05:54:41.133Z,54.30
2022-08-23T05:57:47.544Z,54.32
2022-08-23T06:00:40.643Z,54.45
2022-08-23T06:03:29.347Z,54.46
2022-08-23T06:06:16.271Z,54.55
2022-08-23T06:09:04.047Z,54.64
2022-08-23T06:11:50.663Z,54.85
2022-08-23T06:14:38.648Z,54.75
2022-08-23T06:17:29.043Z,54.80
2022-08-23T06:20:18.208Z,54.87
2022-08-23T06:23:21.954Z,54.99
2022-08-23T06:26:33.723Z,54.92
2022-08-23T06:29:21.636Z,55.18
2022-08-23T06:32:16.950Z,55.04
2022-08-23T06:35:38.659Z,55.15
2022-08-23T06:38:51.014Z,55.20
2022-08-23T06:42:10.101Z,55.16
2022-08-23T06:45:05.492Z,54.91
2022-08-23T06:47:57.661Z,54.94
2022-08-23T06:50:43.743Z,55.00
2022-08-23T06:54:03.058Z,54.96
2022-08-23T06:57:08.239Z,55.05
2022-08-23T07:00:22.133Z,55.01
2022-08-23T07:03:27.367Z,54.96
2022-08-23T07:06:37.168Z,54.90
2022-08-23T07:09:23.680Z,54.77
2022-08-23T07:12:11.581Z,54.91
2022-08-23T07:15:00.604Z,55.05
2022-08-23T07:17:46.539Z,55.08
2022-08-23T07:20:32.583Z,55.12
2022-08-23T07:23:18.391Z,55.12
2022-08-23T07:26:08.503Z,55.38
2022-08-23T07:28:54.632Z,55.08
2022-08-23T07:31:47.025Z,55.19
2022-08-23T07:34:34.400Z,55.15
2022-08-23T07:37:21.045Z,55.17
2022-08-23T07:40:08.522Z,54.95
2022-08-23T07:42:57.893Z,54.79
2022-08-23T07:45:44.649Z,54.90
2022-08-23T07:48:52.501Z,54.74
2022-08-23T07:51:45.526Z,54.65
2022-08-23T07:54:32.001Z,54.55
2022-08-23T07:57:24.851Z,54.56
2022-08-23T08:00:36.984Z,54.61
2022-08-23T08:03:53.475Z,54.67
2022-08-23T08:07:00.189Z,54.50
2022-08-23T08:09:54.991Z,54.48
2022-08-23T08:12:44.239Z,54.66
2022-08-23T08:15:42.187Z,54.45
2022-08-23T08:18:32.433Z,54.26
2022-08-23T08:21:39.610Z,54.30
2022-08-23T08:24:46.482Z,54.29
2022-08-23T08:27:33.385Z,54.32
2022-08-23T08:30:22.049Z,54.45
2022-08-23T08:33:09.054Z,54.17
2022-08-23T08:35:57.758Z,54.36
2022-08-23T08:38:50.361Z,54.12
2022-08-23T08:41:44.279Z,54.08
2022-08-23T08:44:55.867Z,53.94
2022-08-23T08:48:04.053Z,53.71
2022-08-23T08:51:01.758Z,53.56
2022-08-23T08:53:49.036Z,53.41
2022-08-23T08:56:52.000Z,53.20
2022-08-23T09:00:13.803Z,53.07
2022-08-23T09:03:06.418Z,52.92
2022-08-23T09:06:00.671Z,52.89
2022-08-23T09:09:13.459Z,52.88
2022-08-23T09:12:19.067Z,52.64
2022-08-23T09:15:13.104Z,52.31
2022-08-23T09:18:13.673Z,52.15
2022-08-23T09:20:59.798Z,52.00
2022-08-23T09:23:47.902Z,52.12
2022-08-23T09:26:54.749Z,51.81
2022-08-23T09:29:59.232Z,51.87
2022-08-23T09:32:48.742Z,51.83
2022-08-23T09:35:34.840Z,51.60
2022-08-23T09:38:27.064Z,51.43
2022-08-23T09:41:24.011Z,51.19
2022-08-23T09:44:16.496Z,51.17
2022-08-23T09:47:12.283Z,50.87
2022-08-23T09:50:18.347Z,50.53
2022-08-23T09:53:10.966Z,50.26
2022-08-23T09:55:59.078Z,50.16
2022-08-23T09:58:47.166Z,49.78
2022-08-23T10:01:40.320Z,50.06
2022-08-23T10:04:37.537Z,49.63
2022-08-23T10:08:00.669Z,49.70
2022-08-23T10:10:50.911Z,49.55
2022-08-23T10:13:43.219Z,49.39
2022-08-23T10:16:41.547Z,49.39
2022-08-23T10:19:47.884Z,49.46
2022-08-23T10:22:53.543Z,49.47
2022-08-23T10:25:54.923Z,49.84
2022-08-23T10:29:09.783Z,49.49
2022-08-23T10:32:40.905Z,49.52
2022-08-23T10:35:57.510Z,49.30
2022-08-23T10:38:47.140Z,49.31
2022-08-23T10:41:54.899Z,49.33
2022-08-23T10:44:51.025Z,49.42
2022-08-23T10:47:51.702Z,49.21
2022-08-23T10:50:55.797Z,49.28
2022-08-23T10:54:06.278Z,49.14
2022-08-23T10:56:53.018Z,49.37
2022-08-23T10:59:39.370Z,49.14
2022-08-23T11:02:56.283Z,48.92
2022-08-23T11:06:29.306Z,48.53
2022-08-23T11:09:19.194Z,48.42
2022-08-23T11:12:11.824Z,48.49
2022-08-23T11:15:05.479Z,48.71
2022-08-23T11:17:56.324Z,48.29
2022-08-23T11:20:49.551Z,47.84
2022-08-23T11:23:55.963Z,47.61
2022-08-23T11:26:45.443Z,47.38
2022-08-23T11:29:33.226Z,47.15
2022-08-23T11:32:41.296Z,47.12
2022-08-23T11:35:43.265Z,46.34
2022-08-23T11:38:50.021Z,46.45
2022-08-23T11:41:57.178Z,45.69
2022-08-23T11:44:49.164Z,46.49
2022-08-23T11:47:44.536Z,46.27
2022-08-23T11:50:57.726Z,46.11
2022-08-23T11:53:53.185Z,45.83
2022-08-23T11:57:00.462Z,45.19
2022-08-23T13:10:46.230Z,41.65
2022-08-23T13:13:33.023Z,41.64
2022-08-23T13:16:42.963Z,39.61
2022-08-23T13:19:31.164Z,40.55
2022-08-23T13:22:24.068Z,40.30
2022-08-23T13:25:32.164Z,39.42
2022-08-23T13:28:25.548Z,39.12
2022-08-23T13:31:11.457Z,38.38
2022-08-23T13:33:57.640Z,38.05
2022-08-23T13:36:44.423Z,37.30
2022-08-23T13:39:30.777Z,37.09
2022-08-23T13:42:51.158Z,36.26
2022-08-23T13:46:37.821Z,35.63
2022-08-23T13:49:29.336Z,35.97
2022-08-23T13:55:21.680Z,35.27
2022-08-23T13:58:10.763Z,34.69
2022-08-23T14:00:58.858Z,34.80
2022-08-23T14:03:46.800Z,34.80
2022-08-23T14:06:32.513Z,34.31
2022-08-23T14:09:20.471Z,34.01
2022-08-23T14:12:15.562Z,34.04
2022-08-23T14:15:03.879Z,33.91
2022-08-23T14:17:52.689Z,33.31
2022-08-23T14:20:46.470Z,33.38
2022-08-23T14:23:34.574Z,32.71
2022-08-23T14:26:21.928Z,33.25
2022-08-23T14:29:08.343Z,33.32
2022-08-23T14:32:02.289Z,33.28
2022-08-23T14:34:48.490Z,33.18
2022-08-23T14:40:40.894Z,32.66
2022-08-23T14:43:27.648Z,32.62
2022-08-23T14:46:13.725Z,32.31
2022-08-23T14:49:00.031Z,32.43
2022-08-23T14:51:47.492Z,32.29
2022-08-23T14:54:36.129Z,32.42
2022-08-23T14:57:22.012Z,32.34
2022-08-23T15:00:13.774Z,32.55
2022-08-23T15:03:00.220Z,32.09
2022-08-23T15:05:46.432Z,32.41
2022-08-23T15:08:33.434Z,31.87
2022-08-23T15:14:26.323Z,31.51
2022-08-23T15:17:12.074Z,31.14
2022-08-23T15:19:57.892Z,30.90
2022-08-23T15:22:44.640Z,31.09
2022-08-23T15:25:33.803Z,30.27
2022-08-23T15:28:21.064Z,30.30
2022-08-23T15:31:07.399Z,30.06
2022-08-23T15:33:53.477Z,29.82
2022-08-23T15:36:41.924Z,29.49
2022-08-23T15:39:28.123Z,29.46
2022-08-23T15:42:18.539Z,29.13
2022-08-23T15:45:09.227Z,29.32
2022-08-23T15:47:56.522Z,29.32
2022-08-23T15:50:45.360Z,29.46
2022-08-23T15:53:31.813Z,29.76
2022-08-23T15:56:28.207Z,29.80
2022-08-23T15:59:16.686Z,30.15
2022-08-23T16:02:03.803Z,30.83
2022-08-23T16:04:50.084Z,30.78
2022-08-23T16:07:37.128Z,31.46
2022-08-23T16:10:24.089Z,31.82
2022-08-23T16:13:10.793Z,32.31
2022-08-23T16:15:57.650Z,32.47
2022-08-23T16:18:44.195Z,32.97
2022-08-23T16:21:31.438Z,33.15
2022-08-23T16:24:17.218Z,33.61
2022-08-23T16:27:07.605Z,33.56
2022-08-23T16:29:53.559Z,33.77
2022-08-23T16:32:39.368Z,34.34
2022-08-23T16:35:25.378Z,34.33
2022-08-23T16:38:11.284Z,34.64
2022-08-23T16:40:57.413Z,34.86
2022-08-23T16:43:43.529Z,35.05
2022-08-23T16:46:29.482Z,35.57
2022-08-23T16:49:18.679Z,35.50
2022-08-23T16:52:04.715Z,35.61
2022-08-23T16:54:50.813Z,35.87
2022-08-23T16:57:37.090Z,35.99
2022-08-23T17:00:23.082Z,36.43
2022-08-23T17:03:09.950Z,36.60
2022-08-23T17:05:55.989Z,36.79
2022-08-23T17:08:45.141Z,36.73
2022-08-23T17:11:32.959Z,37.44
2022-08-23T17:14:19.962Z,37.40
2022-08-23T17:17:06.171Z,37.63
2022-08-23T17:19:52.366Z,37.56
2022-08-23T17:22:38.419Z,37.79
2022-08-23T17:25:24.982Z,37.90
2022-08-23T17:28:11.096Z,38.31
2022-08-23T17:30:56.918Z,38.15
2022-08-23T17:33:43.837Z,38.44
2022-08-23T17:37:06.920Z,38.47
2022-08-23T17:39:53.329Z,38.59
2022-08-23T17:42:39.426Z,38.71
2022-08-23T17:45:27.189Z,39.07
2022-08-23T17:48:14.509Z,38.84
2022-08-23T17:51:01.572Z,39.16
2022-08-23T17:53:47.529Z,39.07
2022-08-23T17:56:33.880Z,39.45
2022-08-23T17:59:20.363Z,39.54
2022-08-23T18:02:07.161Z,39.30
2022-08-23T18:04:53.040Z,39.44
2022-08-23T18:07:40.427Z,39.51
2022-08-23T18:10:26.967Z,39.85
2022-08-23T18:13:12.799Z,39.64
2022-08-23T18:15:58.790Z,39.67
2022-08-23T18:18:44.842Z,39.72
2022-08-23T18:21:30.791Z,39.79
2022-08-23T18:24:16.991Z,39.94
2022-08-23T18:27:23.565Z,39.83
2022-08-23T18:30:11.176Z,39.80
2022-08-23T18:32:59.595Z,39.82
2022-08-23T18:35:46.671Z,39.86
2022-08-23T18:38:32.567Z,40.18
2022-08-23T18:41:18.521Z,40.24
2022-08-23T18:44:05.948Z,40.49
2022-08-23T18:46:52.089Z,40.17
2022-08-23T18:49:38.902Z,40.39
2022-08-23T18:52:27.159Z,40.35
2022-08-23T18:55:17.822Z,40.47
2022-08-23T18:58:04.665Z,40.51
2022-08-23T19:00:51.010Z,41.01
2022-08-23T19:03:37.002Z,40.72
2022-08-23T19:06:23.624Z,40.86
2022-08-23T19:09:12.796Z,41.08
2022-08-23T19:12:00.886Z,41.23
2022-08-23T19:14:47.102Z,41.20
2022-08-23T19:17:33.285Z,41.18
2022-08-23T19:20:19.789Z,41.27
2022-08-23T19:23:06.114Z,41.46
2022-08-23T19:25:52.230Z,41.62
2022-08-23T19:28:39.820Z,41.45
2022-08-23T19:31:28.217Z,41.74
2022-08-23T19:34:18.883Z,41.71
2022-08-23T19:37:05.185Z,42.09
2022-08-23T19:39:56.684Z,42.05
2022-08-23T19:42:42.558Z,41.95
2022-08-23T19:45:32.179Z,42.19
2022-08-23T19:48:20.022Z,42.33
2022-08-23T19:51:12.458Z,42.07
2022-08-23T19:54:04.619Z,41.96
2022-08-23T19:56:57.591Z,42.34
2022-08-23T19:59:44.736Z,42.98
2022-08-23T20:02:30.662Z,42.49
2022-08-23T20:05:17.706Z,42.52
2022-08-23T20:08:04.311Z,42.68
2022-08-23T20:10:50.219Z,42.87
2022-08-23T20:13:36.360Z,42.88
2022-08-23T20:16:24.019Z,43.14
2022-08-23T20:19:11.239Z,43.07
2022-08-23T20:22:19.421Z,43.28
2022-08-23T20:25:07.428Z,43.12
2022-08-23T20:27:53.865Z,43.23
2022-08-23T20:30:40.271Z,43.22
2022-08-23T20:33:26.157Z,43.44
2022-08-23T20:36:12.483Z,43.48
2022-08-23T20:39:00.191Z,43.58
2022-08-23T20:41:46.435Z,43.41
2022-08-23T20:44:33.382Z,43.50
2022-08-23T20:47:19.298Z,43.51
2022-08-23T20:50:06.181Z,43.63
2022-08-23T20:52:52.379Z,43.55
2022-08-23T20:55:41.680Z,43.85
2022-08-23T20:58:28.138Z,43.63
2022-08-23T21:01:14.512Z,43.83
2022-08-23T21:04:00.966Z,43.79
2022-08-23T21:06:49.960Z,43.99
2022-08-23T21:09:37.051Z,44.01
2022-08-23T21:12:22.998Z,44.01
2022-08-23T21:15:11.064Z,44.06
2022-08-23T21:17:57.129Z,44.24
2022-08-23T21:20:43.191Z,44.31
2022-08-23T21:23:29.308Z,44.53
2022-08-23T21:26:16.031Z,44.60
2022-08-23T21:29:02.315Z,44.59
2022-08-23T21:31:48.497Z,44.62
2022-08-23T21:34:34.677Z,44.81
2022-08-23T21:37:20.392Z,44.80
2022-08-23T21:40:06.974Z,44.93
2022-08-23T21:42:52.825Z,44.95
2022-08-23T21:45:39.586Z,44.85
2022-08-23T21:48:27.838Z,44.95
2022-08-23T21:51:13.813Z,45.03
2022-08-23T21:53:59.682Z,44.97
2022-08-23T21:56:46.274Z,45.14
2022-08-23T21:59:32.052Z,45.29
2022-08-23T22:02:19.239Z,45.30
2022-08-23T22:05:07.171Z,45.32
2022-08-23T22:07:53.569Z,45.59
2022-08-23T22:16:04.013Z,45.60
2022-08-23T22:46:23.351Z,46.00
2022-08-23T22:49:09.451Z,45.93
2022-08-23T22:51:57.462Z,46.05
2022-08-23T22:54:43.616Z,46.07
2022-08-23T22:57:30.678Z,46.22
2022-08-23T23:00:16.739Z,46.28
2022-08-23T23:03:02.709Z,46.33
2022-08-23T23:05:50.209Z,46.49
2022-08-23T23:08:37.063Z,46.52
2022-08-23T23:11:23.801Z,46.75
2022-08-23T23:14:10.550Z,46.50
2022-08-23T23:16:56.606Z,46.85
2022-08-23T23:20:04.049Z,46.91
2022-08-23T23:22:51.901Z,47.02
2022-08-23T23:25:38.115Z,47.08
2022-08-23T23:28:24.306Z,47.03
2022-08-23T23:31:10.048Z,47.15
2022-08-23T23:33:56.155Z,47.22
2022-08-23T23:36:41.996Z,47.35
2022-08-23T23:39:28.332Z,47.27
2022-08-23T23:42:14.282Z,47.48
2022-08-23T23:44:59.984Z,47.47
2022-08-23T23:47:46.373Z,47.43
2022-08-23T23:50:32.538Z,47.45
2022-08-23T23:53:21.695Z,47.60
2022-08-23T23:56:14.976Z,47.71
2022-08-23T23:59:00.771Z,47.76
